Time;durP1;ratioP1;P1;durP2;ratioP2;P2;SDS_P1;SDS_P2;PMS_P1;PMS_P2;Temp;Humidity;BMP_temperature;BMP_pressure;BME280_temperature;BME280_humidity;BME280_pressure;Samples;Min_cycle;Max_cycle;Signal;HPM_P1;HPM_P2
2021/08/07 00:02:18;;;;;;;1.45;0.50;;;;;;;;;;5074678;28;20043;-59
2021/08/07 00:04:43;;;;;;;2.25;0.57;;;;;;;;;;5074202;28;20024;-59
2021/08/07 00:07:09;;;;;;;0.50;0.40;;;;;;;;;;5074640;28;20056;-59
2021/08/07 00:09:34;;;;;;;1.50;0.52;;;;;;;;;;5074741;28;20023;-58
2021/08/07 00:11:59;;;;;;;2.78;0.50;;;;;;;;;;5074722;28;20575;-59
2021/08/07 00:14:24;;;;;;;1.42;0.40;;;;;;;;;;5074856;28;20459;-59
2021/08/07 00:16:49;;;;;;;1.40;0.40;;;;;;;;;;5074028;28;20258;-59
2021/08/07 00:19:15;;;;;;;0.70;0.40;;;;;;;;;;5055899;28;20636;-59
2021/08/07 00:21:40;;;;;;;1.02;0.45;;;;;;;;;;5074299;28;20028;-59
2021/08/07 00:24:05;;;;;;;1.73;0.55;;;;;;;;;;5074785;28;20112;-59
2021/08/07 00:26:30;;;;;;;3.17;0.80;;;;;;;;;;5074163;28;20095;-59
2021/08/07 00:28:56;;;;;;;0.80;0.45;;;;;;;;;;5074585;28;20111;-59
2021/08/07 00:31:21;;;;;;;1.95;0.50;;;;;;;;;;5073696;28;20028;-59
2021/08/07 00:33:46;;;;;;;1.13;0.55;;;;;;;;;;5073709;28;20028;-59
2021/08/07 00:36:11;;;;;;;2.33;0.40;;;;;;;;;;5074598;28;20020;-58
2021/08/07 00:38:36;;;;;;;1.23;0.57;;;;;;;;;;5074379;28;20020;-59
2021/08/07 00:41:02;;;;;;;1.08;0.50;;;;;;;;;;5073783;28;20103;-59
2021/08/07 00:43:27;;;;;;;2.35;0.60;;;;;;;;;;5074154;28;20416;-58
2021/08/07 00:45:52;;;;;;;1.70;0.60;;;;;;;;;;5073930;28;20056;-59
2021/08/07 00:48:17;;;;;;;0.85;0.55;;;;;;;;;;5073842;28;20474;-60
2021/08/07 00:50:46;;;;;;;1.90;0.50;;;;;;;;;;5074014;28;20087;-59
2021/08/07 00:53:12;;;;;;;1.90;0.65;;;;;;;;;;5073256;28;20021;-59
2021/08/07 00:55:38;;;;;;;1.42;0.50;;;;;;;;;;5074055;28;20067;-59
2021/08/07 00:58:03;;;;;;;0.90;0.60;;;;;;;;;;5073802;28;20032;-58
2021/08/07 01:00:28;;;;;;;3.28;0.63;;;;;;;;;;5073649;28;20421;-59
2021/08/07 01:02:57;;;;;;;2.00;0.70;;;;;;;;;;5073400;28;20244;-59
2021/08/07 01:05:24;;;;;;;1.77;0.50;;;;;;;;;;5073428;28;20020;-59
2021/08/07 01:07:52;;;;;;;1.50;0.57;;;;;;;;;;5073447;28;20409;-58
2021/08/07 01:10:39;;;;;;;0.98;0.63;;;;;;;;;;5073048;28;20019;-59
2021/08/07 01:13:07;;;;;;;1.85;0.70;;;;;;;;;;5073693;28;20024;-57
2021/08/07 01:15:33;;;;;;;0.75;0.60;;;;;;;;;;5073528;28;20471;-58
2021/08/07 01:18:01;;;;;;;1.20;0.70;;;;;;;;;;5073313;28;20402;-60
2021/08/07 01:20:30;;;;;;;3.00;0.60;;;;;;;;;;5072986;28;20394;-58
2021/08/07 01:22:56;;;;;;;1.25;0.50;;;;;;;;;;5073290;28;20043;-59
2021/08/07 01:25:23;;;;;;;1.33;0.57;;;;;;;;;;5073376;28;20471;-60
2021/08/07 01:27:48;;;;;;;2.95;0.77;;;;;;;;;;5073241;28;20431;-60
2021/08/07 01:30:14;;;;;;;1.52;0.40;;;;;;;;;;5073116;28;20109;-60
2021/08/07 01:32:39;;;;;;;1.30;0.70;;;;;;;;;;5072994;28;20086;-60
2021/08/07 01:35:05;;;;;;;0.93;0.50;;;;;;;;;;5072714;28;20158;-59
2021/08/07 01:37:31;;;;;;;0.88;0.50;;;;;;;;;;5072885;28;20035;-59
2021/08/07 01:39:57;;;;;;;0.50;0.40;;;;;;;;;;5072903;28;20020;-59
2021/08/07 01:42:22;;;;;;;0.60;0.40;;;;;;;;;;5072518;28;20021;-59
2021/08/07 01:44:48;;;;;;;0.60;0.43;;;;;;;;;;5072937;28;20482;-59
2021/08/07 01:47:37;;;;;;;3.15;0.50;;;;;;;;;;5072900;28;20031;-60
2021/08/07 01:50:09;;;;;;;0.50;0.30;;;;;;;;;;5072592;28;20122;-59
2021/08/07 01:52:35;;;;;;;1.88;0.60;;;;;;;;;;5072734;28;20021;-61
2021/08/07 01:55:07;;;;;;;1.73;0.50;;;;;;;;;;5073130;28;20146;-59
2021/08/07 01:57:34;;;;;;;0.68;0.45;;;;;;;;;;5054830;28;20474;-60
2021/08/07 01:59:59;;;;;;;2.38;0.63;;;;;;;;;;5072254;28;20032;-59
2021/08/07 02:02:26;;;;;;;1.00;0.60;;;;;;;;;;5072637;28;20025;-58
2021/08/07 02:04:51;;;;;;;0.80;0.30;;;;;;;;;;5071413;28;20107;-58
2021/08/07 02:07:16;;;;;;;1.60;0.50;;;;;;;;;;5071599;28;20155;-60
2021/08/07 02:09:42;;;;;;;1.30;0.55;;;;;;;;;;5061887;28;20027;-58
2021/08/07 02:12:07;;;;;;;0.80;0.40;;;;;;;;;;5072340;28;20028;-59
2021/08/07 02:14:35;;;;;;;1.55;0.50;;;;;;;;;;5072180;28;20017;-59
2021/08/07 02:17:01;;;;;;;1.10;0.60;;;;;;;;;;5072537;28;20088;-59
2021/08/07 02:19:26;;;;;;;0.93;0.55;;;;;;;;;;5071895;28;20066;-59
2021/08/07 02:21:52;;;;;;;2.75;1.63;;;;;;;;;;5072231;28;20048;-58
2021/08/07 02:24:17;;;;;;;1.60;0.43;;;;;;;;;;5072501;28;20461;-59
2021/08/07 02:26:43;;;;;;;1.25;0.52;;;;;;;;;;5069374;28;20024;-59
2021/08/07 02:29:08;;;;;;;1.05;0.50;;;;;;;;;;5065293;28;20086;-59
2021/08/07 02:31:34;;;;;;;1.00;0.70;;;;;;;;;;5071789;28;20111;-58
2021/08/07 02:33:59;;;;;;;1.17;0.63;;;;;;;;;;5053593;28;20426;-60
2021/08/07 02:36:25;;;;;;;0.80;0.60;;;;;;;;;;5072196;28;20055;-59
2021/08/07 02:38:50;;;;;;;1.30;0.57;;;;;;;;;;5071894;28;20024;-59
2021/08/07 02:41:16;;;;;;;1.95;0.60;;;;;;;;;;5071749;28;20043;-58
2021/08/07 02:43:41;;;;;;;1.48;0.50;;;;;;;;;;5072055;28;20075;-58
2021/08/07 02:46:06;;;;;;;1.30;0.70;;;;;;;;;;5071929;28;20027;-58
2021/08/07 02:48:32;;;;;;;1.88;0.80;;;;;;;;;;5071504;28;20020;-57
2021/08/07 02:50:58;;;;;;;1.73;0.60;;;;;;;;;;5071890;28;20017;-58
2021/08/07 02:53:24;;;;;;;0.50;0.50;;;;;;;;;;5053954;28;20028;-59
2021/08/07 02:55:50;;;;;;;1.77;0.50;;;;;;;;;;5071773;28;20046;-59
2021/08/07 02:58:16;;;;;;;0.60;0.60;;;;;;;;;;5072080;28;20016;-58
2021/08/07 03:00:41;;;;;;;2.40;0.70;;;;;;;;;;5071609;28;20056;-59
2021/08/07 03:03:06;;;;;;;0.75;0.50;;;;;;;;;;5070969;28;20031;-59
2021/08/07 03:05:31;;;;;;;1.67;0.50;;;;;;;;;;5071646;28;20036;-58
2021/08/07 03:07:57;;;;;;;1.20;0.57;;;;;;;;;;5064853;28;20033;-59
2021/08/07 03:10:22;;;;;;;1.52;0.47;;;;;;;;;;5051932;28;20048;-59
2021/08/07 03:12:52;;;;;;;0.93;0.50;;;;;;;;;;5051620;28;20497;-60
2021/08/07 03:15:17;;;;;;;1.45;0.60;;;;;;;;;;5051724;28;20045;-59
2021/08/07 03:17:43;;;;;;;1.52;0.47;;;;;;;;;;5065913;28;20434;-59
2021/08/07 03:20:09;;;;;;;1.92;0.65;;;;;;;;;;5075829;28;20021;-59
2021/08/07 03:22:34;;;;;;;1.13;0.40;;;;;;;;;;5075615;28;20066;-59
2021/08/07 03:25:00;;;;;;;1.45;0.55;;;;;;;;;;5075694;28;20017;-59
2021/08/07 03:27:25;;;;;;;1.67;0.50;;;;;;;;;;5075081;28;20028;-59
2021/08/07 03:29:50;;;;;;;0.85;0.40;;;;;;;;;;5075735;28;20027;-58
2021/08/07 03:32:15;;;;;;;1.98;0.40;;;;;;;;;;5075338;28;20056;-59
2021/08/07 03:34:41;;;;;;;1.90;0.50;;;;;;;;;;5075082;28;20013;-57
2021/08/07 03:37:06;;;;;;;1.35;0.40;;;;;;;;;;5075453;28;20020;-59
2021/08/07 03:39:31;;;;;;;1.23;0.50;;;;;;;;;;5075108;28;20025;-58
2021/08/07 03:41:56;;;;;;;1.88;0.60;;;;;;;;;;5075413;28;20027;-59
2021/08/07 03:44:22;;;;;;;1.27;0.43;;;;;;;;;;5075155;28;20486;-58
2021/08/07 03:46:47;;;;;;;1.85;0.40;;;;;;;;;;5074647;28;20465;-59
2021/08/07 03:49:12;;;;;;;2.03;0.68;;;;;;;;;;5074553;28;20031;-58
2021/08/07 03:51:37;;;;;;;0.95;0.47;;;;;;;;;;5075139;28;20041;-59
2021/08/07 03:54:03;;;;;;;2.05;0.43;;;;;;;;;;5075167;28;20025;-59
2021/08/07 03:56:28;;;;;;;1.15;0.50;;;;;;;;;;5074855;28;20013;-59
2021/08/07 03:58:53;;;;;;;0.57;0.35;;;;;;;;;;5075193;28;20025;-58
2021/08/07 04:01:18;;;;;;;1.30;0.40;;;;;;;;;;5074985;28;20021;-57
2021/08/07 04:03:44;;;;;;;0.82;0.32;;;;;;;;;;5052431;28;20021;-58
2021/08/07 04:06:09;;;;;;;1.73;0.57;;;;;;;;;;5069004;28;20441;-59
2021/08/07 04:08:34;;;;;;;1.10;0.32;;;;;;;;;;5063576;28;20055;-59
2021/08/07 04:10:59;;;;;;;1.67;0.52;;;;;;;;;;5055044;28;20132;-59
2021/08/07 04:13:25;;;;;;;2.70;0.75;;;;;;;;;;5054784;28;20482;-58
2021/08/07 04:15:50;;;;;;;1.15;0.35;;;;;;;;;;5066454;28;20020;-59
2021/08/07 04:18:15;;;;;;;0.80;0.30;;;;;;;;;;5074291;28;20997;-59
2021/08/07 04:20:41;;;;;;;0.88;0.40;;;;;;;;;;5074748;28;20016;-58
2021/08/07 04:23:06;;;;;;;1.70;0.32;;;;;;;;;;5074546;28;20028;-56
2021/08/07 04:25:31;;;;;;;1.00;0.38;;;;;;;;;;5074934;28;20020;-58
2021/08/07 04:27:57;;;;;;;0.98;0.30;;;;;;;;;;5073328;28;20025;-59
2021/08/07 04:30:22;;;;;;;2.72;0.30;;;;;;;;;;5074642;28;20055;-59
2021/08/07 04:32:47;;;;;;;0.70;0.20;;;;;;;;;;5074005;28;20462;-59
2021/08/07 04:35:12;;;;;;;1.05;0.20;;;;;;;;;;5074129;28;20364;-59
2021/08/07 04:37:45;;;;;;;1.17;0.40;;;;;;;;;;5074229;28;20032;-59
2021/08/07 04:40:10;;;;;;;1.00;0.20;;;;;;;;;;5074117;28;20029;-59
2021/08/07 04:42:35;;;;;;;1.15;0.38;;;;;;;;;;5074275;28;20367;-59
2021/08/07 04:45:00;;;;;;;0.60;0.22;;;;;;;;;;5074298;28;20031;-58
2021/08/07 04:47:26;;;;;;;1.02;0.30;;;;;;;;;;5073896;28;20029;-59
2021/08/07 04:49:51;;;;;;;1.45;0.93;;;;;;;;;;5073569;28;20115;-58
2021/08/07 04:52:16;;;;;;;0.85;0.30;;;;;;;;;;5074336;28;20435;-58
2021/08/07 04:54:41;;;;;;;0.30;0.20;;;;;;;;;;5074098;28;20528;-59
2021/08/07 04:57:06;;;;;;;1.60;0.30;;;;;;;;;;5056196;28;20533;-59
2021/08/07 04:59:32;;;;;;;1.30;0.40;;;;;;;;;;5074078;28;20031;-59
2021/08/07 05:01:57;;;;;;;0.60;0.30;;;;;;;;;;5072753;28;20030;-59
2021/08/07 05:04:22;;;;;;;0.93;0.30;;;;;;;;;;5073305;28;20027;-59
2021/08/07 05:06:47;;;;;;;1.02;0.40;;;;;;;;;;5073466;28;20059;-59
2021/08/07 05:09:12;;;;;;;1.85;0.40;;;;;;;;;;5073494;28;20025;-59
2021/08/07 05:11:38;;;;;;;0.88;0.30;;;;;;;;;;5055524;28;20043;-57
2021/08/07 05:14:03;;;;;;;1.25;0.35;;;;;;;;;;5073407;28;20047;-59
2021/08/07 05:16:28;;;;;;;0.40;0.40;;;;;;;;;;5073436;28;20074;-59
2021/08/07 05:18:53;;;;;;;0.50;0.20;;;;;;;;;;5073239;28;20021;-59
2021/08/07 05:21:18;;;;;;;0.50;0.20;;;;;;;;;;5073812;28;20019;-57
2021/08/07 05:23:44;;;;;;;1.15;0.55;;;;;;;;;;5073201;28;20017;-59
2021/08/07 05:26:09;;;;;;;0.32;0.20;;;;;;;;;;5073503;28;20021;-59
2021/08/07 05:28:34;;;;;;;1.52;0.60;;;;;;;;;;5073470;28;20482;-60
2021/08/07 05:30:59;;;;;;;0.93;0.20;;;;;;;;;;5060831;28;20569;-59
2021/08/07 05:33:25;;;;;;;0.40;0.20;;;;;;;;;;5052608;28;20382;-59
2021/08/07 05:35:50;;;;;;;1.30;0.52;;;;;;;;;;5069562;28;20491;-59
2021/08/07 05:38:16;;;;;;;0.73;0.30;;;;;;;;;;5073681;28;20024;-58
2021/08/07 05:40:41;;;;;;;1.08;0.20;;;;;;;;;;5072148;28;20022;-59
2021/08/07 05:43:06;;;;;;;0.57;0.27;;;;;;;;;;5073045;28;20170;-59
2021/08/07 05:45:31;;;;;;;1.00;0.30;;;;;;;;;;5072999;28;20274;-59
2021/08/07 05:47:56;;;;;;;0.75;0.20;;;;;;;;;;5054579;28;20016;-58
2021/08/07 05:50:22;;;;;;;0.60;0.20;;;;;;;;;;5072579;28;20021;-57
2021/08/07 05:52:47;;;;;;;2.40;0.30;;;;;;;;;;5072910;28;20032;-59
2021/08/07 05:55:12;;;;;;;1.50;0.20;;;;;;;;;;5073004;28;20020;-59
2021/08/07 05:57:37;;;;;;;0.77;0.20;;;;;;;;;;5072459;28;20103;-59
2021/08/07 06:00:03;;;;;;;0.35;0.20;;;;;;;;;;5072832;28;20067;-59
2021/08/07 06:02:32;;;;;;;0.47;0.20;;;;;;;;;;5072380;28;20432;-60
2021/08/07 06:04:58;;;;;;;0.88;0.30;;;;;;;;;;5071975;28;20031;-58
2021/08/07 06:07:23;;;;;;;0.77;0.20;;;;;;;;;;5072091;28;20040;-59
2021/08/07 06:09:48;;;;;;;1.10;0.20;;;;;;;;;;5072175;28;20451;-59
2021/08/07 06:12:13;;;;;;;0.40;0.10;;;;;;;;;;5072172;28;20024;-59
2021/08/07 06:14:38;;;;;;;0.63;0.20;;;;;;;;;;5072813;28;20028;-59
2021/08/07 06:17:03;;;;;;;0.70;0.20;;;;;;;;;;5054431;28;20016;-59
2021/08/07 06:19:29;;;;;;;0.70;0.10;;;;;;;;;;5072025;28;20340;-59
2021/08/07 06:21:54;;;;;;;2.05;0.20;;;;;;;;;;5071889;28;20262;-60
2021/08/07 06:24:19;;;;;;;0.60;0.20;;;;;;;;;;5072277;28;20020;-59
2021/08/07 06:26:44;;;;;;;0.55;0.20;;;;;;;;;;5072057;28;20021;-59
2021/08/07 06:29:10;;;;;;;1.20;0.20;;;;;;;;;;5072299;28;20033;-59
2021/08/07 06:31:35;;;;;;;1.60;0.15;;;;;;;;;;5071576;28;20020;-56
2021/08/07 06:34:02;;;;;;;0.40;0.13;;;;;;;;;;5071160;28;20021;-60
2021/08/07 06:36:28;;;;;;;0.57;0.20;;;;;;;;;;5071934;28;20012;-59
2021/08/07 06:38:53;;;;;;;0.63;0.22;;;;;;;;;;5071871;28;20024;-59
2021/08/07 06:41:18;;;;;;;1.23;0.10;;;;;;;;;;5054282;28;20039;-59
2021/08/07 06:43:43;;;;;;;0.10;0.10;;;;;;;;;;5071749;28;20270;-59
2021/08/07 06:46:08;;;;;;;1.10;0.20;;;;;;;;;;5072116;28;20059;-59
2021/08/07 06:48:35;;;;;;;0.52;0.10;;;;;;;;;;5071646;28;20434;-59
2021/08/07 06:51:00;;;;;;;1.02;0.10;;;;;;;;;;5071491;28;20017;-59
2021/08/07 06:53:25;;;;;;;1.20;0.15;;;;;;;;;;5071691;28;20073;-60
2021/08/07 06:55:50;;;;;;;0.45;0.10;;;;;;;;;;5071210;28;20374;-59
2021/08/07 06:58:16;;;;;;;0.40;0.10;;;;;;;;;;5071712;28;20352;-60
2021/08/07 07:00:41;;;;;;;1.23;0.13;;;;;;;;;;5071856;28;20378;-60
2021/08/07 07:03:06;;;;;;;1.27;0.10;;;;;;;;;;5071226;28;20274;-59
2021/08/07 07:05:33;;;;;;;0.73;0.20;;;;;;;;;;5071304;28;20103;-58
2021/08/07 07:08:01;;;;;;;1.27;0.10;;;;;;;;;;5071765;28;20048;-59
2021/08/07 07:10:27;;;;;;;0.90;0.20;;;;;;;;;;5071816;28;20474;-58
2021/08/07 07:12:52;;;;;;;0.88;0.10;;;;;;;;;;5053613;28;20027;-59
2021/08/07 07:15:18;;;;;;;0.70;0.10;;;;;;;;;;5071652;28;20017;-59
2021/08/07 07:17:43;;;;;;;0.30;0.10;;;;;;;;;;5071337;28;20111;-59
2021/08/07 07:20:09;;;;;;;1.80;0.10;;;;;;;;;;5071507;28;20035;-59
2021/08/07 07:22:34;;;;;;;0.30;0.10;;;;;;;;;;5071444;28;20462;-59
2021/08/07 07:24:59;;;;;;;0.30;0.20;;;;;;;;;;5071812;28;20553;-59
2021/08/07 07:27:24;;;;;;;0.30;0.17;;;;;;;;;;5053024;28;20028;-59
2021/08/07 07:29:50;;;;;;;1.38;0.20;;;;;;;;;;5052997;28;20028;-58
2021/08/07 07:32:15;;;;;;;0.65;0.10;;;;;;;;;;5071211;28;20017;-56
2021/08/07 07:34:40;;;;;;;0.98;0.10;;;;;;;;;;5071021;28;20025;-56
2021/08/07 07:37:06;;;;;;;2.58;0.20;;;;;;;;;;5071191;28;20060;-58
2021/08/07 07:39:31;;;;;;;0.57;0.10;;;;;;;;;;5070989;28;20516;-57
2021/08/07 07:41:57;;;;;;;0.20;0.10;;;;;;;;;;5071142;28;20028;-59
2021/08/07 07:44:22;;;;;;;0.60;0.10;;;;;;;;;;5053450;28;20012;-59
2021/08/07 07:46:47;;;;;;;1.38;0.10;;;;;;;;;;5070969;28;20346;-58
2021/08/07 07:49:13;;;;;;;1.00;0.10;;;;;;;;;;5070937;28;20028;-60
2021/08/07 07:51:38;;;;;;;1.15;0.10;;;;;;;;;;5071070;28;20017;-59
2021/08/07 07:54:03;;;;;;;1.50;0.10;;;;;;;;;;5071043;28;20086;-59
2021/08/07 07:56:28;;;;;;;1.45;0.10;;;;;;;;;;5070897;28;20287;-59
2021/08/07 07:58:53;;;;;;;0.65;0.10;;;;;;;;;;5071252;28;20463;-58
2021/08/07 08:01:19;;;;;;;0.23;0.10;;;;;;;;;;5070942;28;20024;-59
2021/08/07 08:03:44;;;;;;;0.90;0.10;;;;;;;;;;5071824;28;20275;-58
2021/08/07 08:06:09;;;;;;;0.10;0.03;;;;;;;;;;5074777;28;20123;-59
2021/08/07 08:08:35;;;;;;;1.58;0.20;;;;;;;;;;5069682;28;20278;-58
2021/08/07 08:11:00;;;;;;;0.17;0.10;;;;;;;;;;5074813;28;20023;-59
2021/08/07 08:13:25;;;;;;;0.22;0.10;;;;;;;;;;5074440;28;20027;-59
2021/08/07 08:15:50;;;;;;;0.13;0.03;;;;;;;;;;5074848;28;20032;-56
2021/08/07 08:18:16;;;;;;;0.57;0.10;;;;;;;;;;5074436;28;20028;-59
2021/08/07 08:20:41;;;;;;;0.30;0.00;;;;;;;;;;5074488;28;20025;-58
2021/08/07 08:23:06;;;;;;;0.47;0.00;;;;;;;;;;5074391;28;20493;-59
2021/08/07 08:25:32;;;;;;;0.28;0.03;;;;;;;;;;5074596;28;20029;-57
2021/08/07 08:27:57;;;;;;;0.20;0.00;;;;;;;;;;5074274;28;20021;-59
2021/08/07 08:30:22;;;;;;;0.40;0.10;;;;;;;;;;5074563;28;20074;-58
2021/08/07 08:32:48;;;;;;;1.15;0.10;;;;;;;;;;5074222;28;20027;-57
2021/08/07 08:35:13;;;;;;;0.73;0.08;;;;;;;;;;5073893;28;20034;-60
2021/08/07 08:37:38;;;;;;;0.50;0.10;;;;;;;;;;5074411;28;20024;-59
2021/08/07 08:40:05;;;;;;;0.20;0.10;;;;;;;;;;5074141;28;20099;-59
2021/08/07 08:42:30;;;;;;;0.20;0.00;;;;;;;;;;5056162;28;20268;-60
2021/08/07 08:44:55;;;;;;;1.35;0.10;;;;;;;;;;5074318;28;20540;-59
2021/08/07 08:47:22;;;;;;;0.35;0.08;;;;;;;;;;5074052;28;20024;-60
2021/08/07 08:49:50;;;;;;;0.75;0.10;;;;;;;;;;5045636;28;20021;-59
2021/08/07 08:52:15;;;;;;;0.98;0.10;;;;;;;;;;5054104;28;20017;-60
2021/08/07 08:54:41;;;;;;;0.57;0.20;;;;;;;;;;5054076;28;20028;-57
2021/08/07 08:57:07;;;;;;;0.70;0.10;;;;;;;;;;5071524;28;20103;-59
2021/08/07 08:59:32;;;;;;;1.08;0.10;;;;;;;;;;5055980;28;20154;-60
2021/08/07 09:01:57;;;;;;;0.93;0.05;;;;;;;;;;5073585;28;20095;-58
2021/08/07 09:04:23;;;;;;;0.60;0.10;;;;;;;;;;5072467;28;20023;-59
2021/08/07 09:06:48;;;;;;;0.63;0.30;;;;;;;;;;5073462;28;20048;-59
2021/08/07 09:09:13;;;;;;;0.68;0.30;;;;;;;;;;5073442;28;20383;-59
2021/08/07 09:11:45;;;;;;;0.28;0.08;;;;;;;;;;5073751;28;20150;-59
2021/08/07 09:14:17;;;;;;;0.60;0.20;;;;;;;;;;5072671;28;20016;-58
2021/08/07 09:16:57;;;;;;;1.50;0.20;;;;;;;;;;5073428;28;20111;-59
2021/08/07 09:19:22;;;;;;;0.45;0.10;;;;;;;;;;5073273;28;20024;-58
2021/08/07 09:22:04;;;;;;;1.10;0.10;;;;;;;;;;5073496;28;20020;-58
2021/08/07 09:24:29;;;;;;;0.80;0.10;;;;;;;;;;5073606;28;20066;-59
2021/08/07 09:27:04;;;;;;;1.80;0.20;;;;;;;;;;5073021;28;20535;-59
2021/08/07 09:29:35;;;;;;;1.05;0.10;;;;;;;;;;5073372;28;20286;-59
2021/08/07 09:32:01;;;;;;;0.30;0.10;;;;;;;;;;5072715;28;20035;-58
2021/08/07 09:34:26;;;;;;;0.98;0.10;;;;;;;;;;5072749;28;20020;-60
2021/08/07 09:36:56;;;;;;;0.47;0.10;;;;;;;;;;5073004;28;20016;-58
2021/08/07 09:39:34;;;;;;;0.52;0.10;;;;;;;;;;5073225;28;20512;-58
2021/08/07 09:42:00;;;;;;;0.52;0.10;;;;;;;;;;5070145;28;20029;-59
2021/08/07 09:44:25;;;;;;;0.68;0.20;;;;;;;;;;5073264;28;20352;-58
2021/08/07 09:47:01;;;;;;;0.68;0.20;;;;;;;;;;5072693;28;20479;-57
2021/08/07 09:49:37;;;;;;;0.98;0.20;;;;;;;;;;5072179;28;20508;-60
2021/08/07 09:52:03;;;;;;;0.57;0.10;;;;;;;;;;5054374;28;20517;-59
2021/08/07 09:54:38;;;;;;;0.35;0.10;;;;;;;;;;5072958;28;20048;-60
2021/08/07 09:57:04;;;;;;;0.47;0.15;;;;;;;;;;5072301;28;20025;-59
2021/08/07 09:59:30;;;;;;;1.17;0.30;;;;;;;;;;5072327;28;20149;-59
2021/08/07 10:01:56;;;;;;;0.68;0.20;;;;;;;;;;5072762;28;20050;-59
2021/08/07 10:04:22;;;;;;;1.00;0.10;;;;;;;;;;5071994;28;20382;-59
2021/08/07 10:06:48;;;;;;;0.88;0.10;;;;;;;;;;5072564;28;20104;-58
2021/08/07 10:09:13;;;;;;;1.23;0.10;;;;;;;;;;5066503;28;20024;-59
2021/08/07 10:11:39;;;;;;;0.20;0.10;;;;;;;;;;5072202;28;20024;-60
2021/08/07 10:14:05;;;;;;;0.25;0.10;;;;;;;;;;5072212;28;20017;-58
2021/08/07 10:16:31;;;;;;;0.45;0.10;;;;;;;;;;5072538;28;20378;-60
2021/08/07 10:18:57;;;;;;;0.20;0.10;;;;;;;;;;5071592;28;20071;-59
2021/08/07 10:21:24;;;;;;;1.30;0.10;;;;;;;;;;5054399;28;20431;-59
2021/08/07 10:23:51;;;;;;;1.50;0.17;;;;;;;;;;5054270;28;20024;-59
2021/08/07 10:26:19;;;;;;;0.30;0.10;;;;;;;;;;5053552;28;20039;-58
2021/08/07 10:28:51;;;;;;;0.43;0.10;;;;;;;;;;5072135;28;20095;-58
2021/08/07 10:31:20;;;;;;;1.98;0.10;;;;;;;;;;5072271;28;20026;-58
2021/08/07 10:33:48;;;;;;;0.80;0.10;;;;;;;;;;5071480;28;20383;-59
2021/08/07 10:36:14;;;;;;;0.77;0.15;;;;;;;;;;5071907;28;20066;-59
2021/08/07 10:38:40;;;;;;;0.20;0.10;;;;;;;;;;5072257;28;20020;-58
2021/08/07 10:41:05;;;;;;;1.20;0.20;;;;;;;;;;5072468;28;20023;-59
2021/08/07 10:43:35;;;;;;;0.38;0.20;;;;;;;;;;5071664;28;20024;-59
2021/08/07 10:46:03;;;;;;;0.40;0.10;;;;;;;;;;5072199;28;20031;-59
2021/08/07 10:48:40;;;;;;;0.50;0.30;;;;;;;;;;5071259;28;20028;-58
2021/08/07 10:51:23;;;;;;;0.70;0.10;;;;;;;;;;5072564;28;20387;-58
2021/08/07 10:53:52;;;;;;;0.55;0.20;;;;;;;;;;5071654;28;20168;-59
2021/08/07 10:56:32;;;;;;;0.70;0.10;;;;;;;;;;5072292;28;20021;-57
2021/08/07 10:59:16;;;;;;;0.25;0.10;;;;;;;;;;5072114;28;20364;-58
2021/08/07 11:01:41;;;;;;;0.82;0.20;;;;;;;;;;5070135;28;20566;-59
2021/08/07 11:04:07;;;;;;;0.82;0.20;;;;;;;;;;5070266;28;20111;-59
2021/08/07 11:06:44;;;;;;;0.22;0.20;;;;;;;;;;5071605;28;20495;-59
2021/08/07 11:09:15;;;;;;;1.30;0.10;;;;;;;;;;5055862;28;20047;-60
2021/08/07 11:11:40;;;;;;;1.33;0.10;;;;;;;;;;5051568;28;20411;-57
2021/08/07 11:14:38;;;;;;;1.70;0.20;;;;;;;;;;5062134;28;20089;-60
2021/08/07 11:17:06;;;;;;;0.32;0.20;;;;;;;;;;5048638;28;20119;-60
2021/08/07 11:19:49;;;;;;;1.60;0.10;;;;;;;;;;5070981;28;20025;-59
2021/08/07 11:22:15;;;;;;;0.73;0.20;;;;;;;;;;5070863;28;20028;-60
2021/08/07 11:24:43;;;;;;;0.75;0.17;;;;;;;;;;5071530;28;20082;-60
2021/08/07 11:27:08;;;;;;;0.55;0.20;;;;;;;;;;5071651;28;20013;-60
2021/08/07 11:29:34;;;;;;;1.50;0.10;;;;;;;;;;5071579;28;20070;-60
2021/08/07 11:32:19;;;;;;;0.53;0.10;;;;;;;;;;5071213;28;20017;-60
2021/08/07 11:34:47;;;;;;;1.42;0.20;;;;;;;;;;5052312;28;20262;-60
2021/08/07 11:37:14;;;;;;;0.50;0.10;;;;;;;;;;5072182;28;20103;-60
2021/08/07 11:39:58;;;;;;;0.50;0.22;;;;;;;;;;5074750;28;20021;-60
2021/08/07 11:42:45;;;;;;;1.03;0.20;;;;;;;;;;5075191;28;20024;-60
2021/08/07 11:45:14;;;;;;;0.70;0.10;;;;;;;;;;5075447;28;20031;-60
2021/08/07 11:47:43;;;;;;;1.05;0.10;;;;;;;;;;5075189;28;20025;-60
2021/08/07 11:50:09;;;;;;;0.75;0.20;;;;;;;;;;5074625;28;20028;-59
2021/08/07 11:52:34;;;;;;;0.40;0.10;;;;;;;;;;5074867;28;20020;-60
2021/08/07 11:54:59;;;;;;;1.90;0.10;;;;;;;;;;5057088;28;20048;-60
2021/08/07 11:57:25;;;;;;;0.95;0.10;;;;;;;;;;5074339;28;20267;-60
2021/08/07 11:59:50;;;;;;;1.38;0.20;;;;;;;;;;5074488;28;20032;-60
2021/08/07 12:02:16;;;;;;;0.68;0.10;;;;;;;;;;5074727;28;20194;-59
2021/08/07 12:04:41;;;;;;;2.15;0.20;;;;;;;;;;5056406;28;20023;-59
2021/08/07 12:07:10;;;;;;;0.35;0.13;;;;;;;;;;5074049;28;20085;-59
2021/08/07 12:09:36;;;;;;;0.47;0.20;;;;;;;;;;5075040;28;20036;-60
2021/08/07 12:12:01;;;;;;;0.65;0.10;;;;;;;;;;5074745;28;20069;-59
2021/08/07 12:14:27;;;;;;;0.80;0.13;;;;;;;;;;5055711;28;20052;-59
2021/08/07 12:16:52;;;;;;;1.45;0.20;;;;;;;;;;5054654;28;20041;-59
2021/08/07 12:19:21;;;;;;;0.77;0.20;;;;;;;;;;5058565;28;20068;-59
2021/08/07 12:21:47;;;;;;;1.35;0.20;;;;;;;;;;5074433;28;20016;-59
2021/08/07 12:24:25;;;;;;;0.25;0.17;;;;;;;;;;5074514;28;20054;-59
2021/08/07 12:26:51;;;;;;;0.65;0.20;;;;;;;;;;5074378;28;20048;-59
2021/08/07 12:29:18;;;;;;;2.25;0.35;;;;;;;;;;5074449;28;20025;-58
2021/08/07 12:32:03;;;;;;;0.63;0.20;;;;;;;;;;5073825;28;20050;-59
2021/08/07 12:34:30;;;;;;;0.63;0.15;;;;;;;;;;5073560;28;20032;-60
2021/08/07 12:37:00;;;;;;;0.77;0.20;;;;;;;;;;5074434;28;20048;-60
2021/08/07 12:39:26;;;;;;;3.00;0.25;;;;;;;;;;5074247;28;20471;-60
2021/08/07 12:41:51;;;;;;;0.65;0.30;;;;;;;;;;5074101;28;20029;-60
2021/08/07 12:44:23;;;;;;;1.13;0.20;;;;;;;;;;5074094;28;20056;-60
2021/08/07 12:46:50;;;;;;;0.80;0.10;;;;;;;;;;5074366;28;20024;-60
2021/08/07 12:49:31;;;;;;;0.73;0.20;;;;;;;;;;5073388;28;20021;-60
2021/08/07 12:51:59;;;;;;;1.85;0.30;;;;;;;;;;5074095;28;20016;-60
2021/08/07 12:54:25;;;;;;;1.58;0.10;;;;;;;;;;5073703;28;20442;-60
2021/08/07 12:56:50;;;;;;;2.00;0.20;;;;;;;;;;5073917;28;20096;-60
2021/08/07 12:59:18;;;;;;;0.57;0.10;;;;;;;;;;5074650;28;20123;-60
2021/08/07 13:01:58;;;;;;;1.85;0.30;;;;;;;;;;5073264;28;20312;-60
2021/08/07 13:04:37;;;;;;;1.75;0.20;;;;;;;;;;5073179;28;20039;-60
2021/08/07 13:07:02;;;;;;;1.13;0.40;;;;;;;;;;5055804;28;20052;-58
2021/08/07 13:09:29;;;;;;;0.95;0.20;;;;;;;;;;5074235;28;20020;-60
2021/08/07 13:12:00;;;;;;;0.70;0.20;;;;;;;;;;5073674;28;20028;-60
2021/08/07 13:14:25;;;;;;;0.57;0.10;;;;;;;;;;5073550;28;20020;-60
2021/08/07 13:16:50;;;;;;;0.60;0.27;;;;;;;;;;5073300;28;20410;-60
2021/08/07 13:19:20;;;;;;;0.83;0.20;;;;;;;;;;5055378;28;20029;-59
2021/08/07 13:21:49;;;;;;;0.40;0.20;;;;;;;;;;5074198;28;20043;-58
2021/08/07 13:24:27;;;;;;;2.53;0.30;;;;;;;;;;5072640;28;20496;-59
2021/08/07 13:26:52;;;;;;;0.85;0.43;;;;;;;;;;5073078;28;20043;-59
2021/08/07 13:29:18;;;;;;;2.67;0.30;;;;;;;;;;5073677;28;20021;-58
2021/08/07 13:31:43;;;;;;;0.70;0.20;;;;;;;;;;5073024;28;20330;-58
2021/08/07 13:34:09;;;;;;;1.00;0.40;;;;;;;;;;5072159;28;20021;-58
2021/08/07 13:36:34;;;;;;;0.67;0.20;;;;;;;;;;5073125;28;20100;-58
2021/08/07 13:38:59;;;;;;;1.33;0.30;;;;;;;;;;5073113;28;20024;-59
2021/08/07 13:41:24;;;;;;;2.10;0.30;;;;;;;;;;5073156;28;20021;-59
2021/08/07 13:43:49;;;;;;;0.43;0.30;;;;;;;;;;5072735;28;20445;-59
2021/08/07 13:46:15;;;;;;;1.37;0.33;;;;;;;;;;5054723;28;20058;-58
2021/08/07 13:48:40;;;;;;;2.58;0.55;;;;;;;;;;5072259;28;20344;-59
2021/08/07 13:51:05;;;;;;;0.77;0.43;;;;;;;;;;5073067;28;20020;-59
2021/08/07 13:53:30;;;;;;;1.20;0.20;;;;;;;;;;5072899;28;20255;-58
2021/08/07 13:55:56;;;;;;;0.57;0.20;;;;;;;;;;5055069;28;20012;-59
2021/08/07 13:58:21;;;;;;;1.30;0.20;;;;;;;;;;5072559;28;20028;-57
2021/08/07 14:00:46;;;;;;;0.70;0.20;;;;;;;;;;5071737;28;20271;-59
2021/08/07 14:03:11;;;;;;;0.40;0.20;;;;;;;;;;5072281;28;20044;-59
2021/08/07 14:05:37;;;;;;;1.13;0.20;;;;;;;;;;5072235;28;20274;-60
2021/08/07 14:08:02;;;;;;;2.25;0.30;;;;;;;;;;5067817;28;20080;-58
2021/08/07 14:10:27;;;;;;;2.35;0.30;;;;;;;;;;5069961;28;20016;-59
2021/08/07 14:12:53;;;;;;;1.10;0.20;;;;;;;;;;5065147;28;20092;-59
2021/08/07 14:15:18;;;;;;;0.80;0.30;;;;;;;;;;5075802;28;20020;-59
2021/08/07 14:17:43;;;;;;;0.90;0.37;;;;;;;;;;5067448;28;20262;-60
2021/08/07 14:20:08;;;;;;;0.67;0.30;;;;;;;;;;5071295;28;20274;-60
2021/08/07 14:22:34;;;;;;;1.13;0.30;;;;;;;;;;5073856;28;20016;-60
2021/08/07 14:24:59;;;;;;;1.73;0.57;;;;;;;;;;5069405;28;20705;-60
2021/08/07 14:27:24;;;;;;;1.07;0.30;;;;;;;;;;5067284;28;20013;-59
2021/08/07 14:29:49;;;;;;;1.63;0.20;;;;;;;;;;5071960;28;20090;-60
2021/08/07 14:32:15;;;;;;;0.93;0.10;;;;;;;;;;5084638;28;20672;-60
2021/08/07 14:34:40;;;;;;;1.35;0.30;;;;;;;;;;5074504;28;20367;-59
2021/08/07 14:37:05;;;;;;;0.93;0.30;;;;;;;;;;5066366;28;20406;-59
2021/08/07 14:39:30;;;;;;;0.80;0.28;;;;;;;;;;5051835;28;20368;-57
2021/08/07 14:41:56;;;;;;;1.77;0.30;;;;;;;;;;5079144;28;20059;-60